Aérodrome :
LOGIN :

S'inscrire | Disclaimer

   EN    FR    IT 

 










Légende :    VFR   VFR Marginal   IFR   IFR Intensif   IFR Très Intensif
Visi : 
Plafond : 
>= 8 km
>= 3000ft
5 à 8 km
1000 à 3000 ft
1500m à 5 km
500 à 1000 ft
800 à 1500m
200 à 500 ft
< 800m
< 200 ft
Symboles :   Orages  Brouillard  Fortes neiges  Fortes précipitations  Vent > 20 kt
SIGMETs :   Divers  Orages  Givrage  Turbulence  Onde Orograph.  Cendres Volcan.






- Altitude de l'aérodrome : 3 ft
- Code IATA : DHR


EHKD - Den Helder De Kooy

DERNIER METAR :
  • 191757Z AUTO 22014KT 190V250 9999 SCT018 BKN022 BKN029 13/10 Q1002 WHT

METARs EXPIRÉS :
  • 191755Z AUTO 21015KT 190V250 9999 FEW019 SCT022 BKN027 13/10 Q1002 WHT
  • 191731Z AUTO 21017KT 9999 BKN019 BKN022 13/10 Q1002 WHT 19016KT 9999 SCT025 TEMPO SCT015 SCT018CB
  • 191727Z AUTO 21016KT 9999 SCT019 13/10 Q1002 WHT 19016KT 9999 SCT025 TEMPO SCT015 SCT018CB
  • 191709Z AUTO 21016KT 9999 FEW018 SCT022 13/10 Q1002 WHT 19016KT 9999 SCT025 TEMPO SCT015 SCT018CB
  • 191700Z AUTO 21017KT 180V240 9999 FEW019 BKN170 13/10 Q1002 BLU 19016KT 9999 SCT025 TEMPO SCT015 SCT018CB
  • 191655Z AUTO 21017KT 180V240 9999 SCT019 OVC170 13/10 Q1002 WHT 19016KT 9999 SCT025 TEMPO SCT015 SCT018CB
  • 191631Z AUTO 20016KT 170V230 9999 SCT018 BKN021 BKN027 13/10 Q1002 WHT 19016KT 9999 SCT025 TEMPO SCT015 SCT018CB
  • 191625Z AUTO 20016KT 9999 FEW022 SCT027 OVC180 13/10 Q1001 BLU 19016KT 9999 SCT025 TEMPO SCT015 SCT018CB
  • 191557Z AUTO 21015KT 180V240 9999 FEW021 SCT027 OVC170 13/10 Q1001 BLU 19016KT 9999 SCT025 TEMPO SCT015 SCT018CB
  • 191555Z AUTO 21016KT 9999 FEW020 SCT024 BKN027 13/10 Q1001 WHT 19016KT 9999 SCT025 TEMPO SCT015 SCT018CB
  • 191525Z AUTO 20017KT 9999 FEW023 SCT028 BKN032 13/10 Q1001 BLU 19016KT 9999 SCT025 TEMPO SCT015 SCT018CB
  • 191516Z AUTO 20017KT 9999 FEW021 SCT025 BKN029 13/10 Q1001 BLU 19016KT 9999 SCT025 TEMPO SCT015 SCT018CB

TAF TAF EHKD
Valide du 19 à 17h jusqu'au 20 à 05h UTC


191659Z 1917/2005 20015KT FEW018 SCT030
PROB40
TEMPO 1917/2001 21016G26KT 4000 SHRA SCT015 SCT020CB
BECMG 1923/2002 22006KT



MET'MAP, la Météo Aéronautique d'un coup d'oeil ! - Copyright ORBIFLY Décembre 2007 - Disclaimer

ORBIFLY MET'MAP TEAM :

Programmation & Développement : Alexandra Zaïnal
Conception & Développement : Baudouin d'Aumeries
Co-Programmation & Développement : Marc-Olivier Méhu
Soutien technique & logistique : Manuel Goepfert

Contact : metmap@orbifly.com




SOURCES & CREDITS :

   NOAA